Harare, Zimbabwe
Current Conditions -  °F | °C
As of 4:00 PM on Friday 24 Oct 2014 (Local Time) from FVHA Reporting Station
Rain Showers Rain Showers  
Wind Chill: 82°   Ceiling: 5000
Heat Index: 82°   Visibility: 6mi
Dew Point: 45°   Wind: 7mph
Humidity: 26%   Direction: 170°S
Pressure: 30.06"   Gusts: NA
Location:  17.82°S, 31.05°E
Report Text: FVHA 241400Z 17006KT 140V210 9999 VCSH FEW045CB BKN050TCU 28/07 Q1018 TEMPO 8000 -TSRA RMK QFE 850.6
Loading
Personal Weather Stations






























Interactive Weather Map
Tropical Storm Tracking
New forecast layout! Learn more

10-Day Weather Forecast

Advertisements
Track Severe Weather on mobile